Terminal Aerodrome Forecast
Issued by NWS

Home | Current Version | Previous Version | Text Only | Print | Product List | Glossary On
Versions: 1 2 3 4 5 6 7 8 9 10 11 12 13 14 15 16 17 18 19 20 21 22 23 24 25
000
FTUS45 KTFX 271700
TAFCTB
TAF
KCTB 271722Z 2718/2818 26028G38KT P6SM FEW100 SCT200 WS020/26045KT
     FM280100 25020G30KT P6SM SCT200
     FM281500 25028G38KT P6SM FEW050 SCT090=

USA.gov is the U.S. government's official web portal to all federal, state and local government web resources and services.